Time;durP1;ratioP1;P1;durP2;ratioP2;P2;SDS_P1;SDS_P2;PMS_P1;PMS_P2;Temp;Humidity;BMP_temperature;BMP_pressure;BME280_temperature;BME280_humidity;BME280_pressure;Samples;Min_cycle;Max_cycle;Signal;HPM_P1;HPM_P2
2023/03/23 00:01:49;;;;;;;;;;;;;;;14.44;56.65;99807.09;5018078;28;21206;-84
2023/03/23 00:04:15;;;;;;;;;;;;;;;14.42;56.47;99802.00;5004524;28;19948;-84
2023/03/23 00:06:40;;;;;;;;;;;;;;;14.43;56.41;99805.47;5032650;28;19917;-84
2023/03/23 00:09:06;;;;;;;;;;;;;;;14.42;55.95;99803.84;5019621;28;19923;-83
2023/03/23 00:11:32;;;;;;;;;;;;;;;14.45;55.62;99803.44;5016979;28;19913;-83
2023/03/23 00:14:00;;;;;;;;;;;;;;;14.44;55.88;99807.09;5010373;28;20389;-84
2023/03/23 00:16:30;;;;;;;;;;;;;;;14.45;55.43;99798.13;5015338;28;19960;-84
2023/03/23 00:18:57;;;;;;;;;;;;;;;14.48;55.19;99797.72;5011936;28;19917;-84
2023/03/23 00:21:33;;;;;;;;;;;;;;;14.48;54.80;99791.59;5005190;28;19991;-84
2023/03/23 00:24:04;;;;;;;;;;;;;;;14.54;54.70;99794.34;5028855;28;19917;-84
2023/03/23 00:26:33;;;;;;;;;;;;;;;14.52;54.66;99782.22;5016128;28;19917;-84
2023/03/23 00:29:00;;;;;;;;;;;;;;;14.52;54.74;99777.72;5008682;28;20183;-84
2023/03/23 00:31:31;;;;;;;;;;;;;;;14.50;54.54;99771.75;5013177;28;20169;-84
2023/03/23 00:33:56;;;;;;;;;;;;;;;14.56;54.05;99771.03;5023417;28;19933;-84
2023/03/23 00:36:23;;;;;;;;;;;;;;;14.59;54.13;99775.94;5005241;28;20065;-84
2023/03/23 00:38:48;;;;;;;;;;;;;;;14.57;54.05;99775.31;5033586;28;20324;-84
2023/03/23 00:41:15;;;;;;;;;;;;;;;14.59;54.05;99781.25;5019379;28;19924;-84
2023/03/23 00:43:40;;;;;;;;;;;;;;;14.60;54.03;99774.91;5035301;28;19917;-84
2023/03/23 00:46:09;;;;;;;;;;;;;;;14.59;54.11;99773.28;5009939;28;19968;-84
2023/03/23 00:48:36;;;;;;;;;;;;;;;14.58;54.33;99773.47;5031204;28;19940;-84
2023/03/23 00:51:05;;;;;;;;;;;;;;;14.56;53.94;99773.69;5020340;28;19972;-84
2023/03/23 00:53:31;;;;;;;;;;;;;;;14.54;54.15;99772.19;5028009;28;19924;-84
2023/03/23 00:55:57;;;;;;;;;;;;;;;14.54;54.34;99766.88;5042404;28;19917;-84
2023/03/23 00:58:22;;;;;;;;;;;;;;;14.49;54.41;99771.94;5012150;28;20163;-84
2023/03/23 01:00:48;;;;;;;;;;;;;;;14.50;54.59;99776.25;5037857;28;19921;-84
2023/03/23 01:03:18;;;;;;;;;;;;;;;14.46;54.82;99781.13;5016355;28;19932;-84
2023/03/23 01:05:46;;;;;;;;;;;;;;;14.43;55.12;99769.06;5011303;28;19932;-84
2023/03/23 01:08:12;;;;;;;;;;;;;;;14.40;55.13;99763.31;5014944;28;19924;-84
2023/03/23 01:10:38;;;;;;;;;;;;;;;14.37;55.16;99756.56;5018200;28;19944;-84
2023/03/23 01:13:07;;;;;;;;;;;;;;;14.33;55.20;99759.78;5017418;28;19920;-84
2023/03/23 01:15:33;;;;;;;;;;;;;;;14.30;55.30;99760.16;5022270;28;20349;-84
2023/03/23 01:17:59;;;;;;;;;;;;;;;14.29;55.30;99753.22;5019933;28;20119;-84
2023/03/23 01:20:26;;;;;;;;;;;;;;;14.22;55.18;99759.31;5016965;28;19928;-84
2023/03/23 01:22:52;;;;;;;;;;;;;;;14.20;55.28;99756.00;5007071;28;19964;-84
2023/03/23 01:25:18;;;;;;;;;;;;;;;14.21;55.33;99756.84;5012849;28;20106;-84
2023/03/23 01:27:43;;;;;;;;;;;;;;;14.24;55.15;99753.78;5015509;28;19940;-84
2023/03/23 01:30:11;;;;;;;;;;;;;;;14.24;55.03;99751.94;5030700;28;19927;-84
2023/03/23 01:32:36;;;;;;;;;;;;;;;14.26;55.05;99745.63;5016362;28;19931;-84
2023/03/23 01:35:01;;;;;;;;;;;;;;;14.24;55.07;99735.19;5014799;28;19948;-84
2023/03/23 01:37:29;;;;;;;;;;;;;;;14.26;55.18;99738.47;5016055;28;19948;-85
2023/03/23 01:39:56;;;;;;;;;;;;;;;14.28;55.07;99727.63;5016096;28;19928;-84
2023/03/23 01:42:22;;;;;;;;;;;;;;;14.26;55.40;99730.50;5031918;28;20214;-84
2023/03/23 01:44:47;;;;;;;;;;;;;;;14.26;55.22;99727.84;5016440;28;19921;-84
2023/03/23 01:47:13;;;;;;;;;;;;;;;14.24;55.15;99737.84;5030558;28;19983;-85
2023/03/23 01:49:44;;;;;;;;;;;;;;;14.26;54.95;99730.50;5013092;28;20445;-84
2023/03/23 01:52:23;;;;;;;;;;;;;;;14.26;55.08;99721.72;5000346;28;19980;-83
2023/03/23 01:54:50;;;;;;;;;;;;;;;14.26;55.07;99719.84;5034071;28;19919;-84
2023/03/23 01:57:16;;;;;;;;;;;;;;;14.27;54.83;99713.50;5016010;28;20019;-83
2023/03/23 01:59:47;;;;;;;;;;;;;;;14.27;54.82;99707.38;5009085;28;19917;-83
2023/03/23 02:02:13;;;;;;;;;;;;;;;14.31;54.81;99704.13;5031039;28;19951;-83
2023/03/23 02:04:39;;;;;;;;;;;;;;;14.34;54.57;99694.94;5014423;28;19921;-83
2023/03/23 02:07:07;;;;;;;;;;;;;;;14.34;54.11;99694.94;5029408;28;19924;-83
2023/03/23 02:09:33;;;;;;;;;;;;;;;14.34;54.08;99701.06;5014487;28;19924;-83
2023/03/23 02:11:58;;;;;;;;;;;;;;;14.37;54.04;99705.19;5014033;28;20271;-83
2023/03/23 02:14:27;;;;;;;;;;;;;;;14.35;54.15;99701.88;5030904;28;19959;-83
2023/03/23 02:17:05;;;;;;;;;;;;;;;14.36;54.24;99695.56;5027974;28;19917;-83
2023/03/23 02:19:49;;;;;;;;;;;;;;;14.37;54.37;99707.84;5005310;28;19964;-83
2023/03/23 02:22:30;;;;;;;;;;;;;;;14.37;54.25;99711.34;5009724;28;19925;-83
2023/03/23 02:24:58;;;;;;;;;;;;;;;14.35;54.16;99712.53;5017371;28;19927;-83
2023/03/23 02:27:23;;;;;;;;;;;;;;;14.33;54.45;99711.94;5036606;28;19924;-83
2023/03/23 02:30:01;;;;;;;;;;;;;;;14.32;54.76;99718.25;5011738;28;20310;-83
2023/03/23 02:32:26;;;;;;;;;;;;;;;14.29;54.66;99719.47;5017603;28;19923;-83
2023/03/23 02:34:58;;;;;;;;;;;;;;;14.26;55.00;99705.75;5016536;28;20370;-83
2023/03/23 02:37:27;;;;;;;;;;;;;;;14.26;54.66;99705.75;5013266;28;20008;-83
2023/03/23 02:39:56;;;;;;;;;;;;;;;14.25;54.83;99702.25;5018592;28;19932;-84
2023/03/23 02:42:26;;;;;;;;;;;;;;;14.25;54.79;99688.94;5020253;28;20008;-84
2023/03/23 02:44:52;;;;;;;;;;;;;;;14.28;54.66;99685.06;5033547;28;20012;-84
2023/03/23 02:47:20;;;;;;;;;;;;;;;14.27;54.54;99673.63;5038190;28;19960;-84
2023/03/23 02:49:47;;;;;;;;;;;;;;;14.28;54.46;99671.78;5017322;28;19917;-84
2023/03/23 02:52:15;;;;;;;;;;;;;;;14.27;54.70;99678.94;5015253;28;19999;-83
2023/03/23 02:54:42;;;;;;;;;;;;;;;14.26;54.53;99672.00;5036599;28;19917;-84
2023/03/23 02:57:08;;;;;;;;;;;;;;;14.29;54.72;99668.13;5034453;28;19917;-84
2023/03/23 02:59:34;;;;;;;;;;;;;;;14.26;54.54;99660.53;5017810;28;19932;-85
2023/03/23 03:02:26;;;;;;;;;;;;;;;14.21;55.06;99667.25;5016433;28;20016;-84
2023/03/23 03:05:05;;;;;;;;;;;;;;;14.22;55.09;99666.22;5020471;28;19937;-84
2023/03/23 03:07:48;;;;;;;;;;;;;;;14.22;54.90;99663.56;5009185;28;20045;-83
2023/03/23 03:10:21;;;;;;;;;;;;;;;14.21;54.95;99664.59;5010260;28;19917;-83
2023/03/23 03:12:52;;;;;;;;;;;;;;;14.25;54.92;99662.34;5034190;28;19951;-84
2023/03/23 03:15:18;;;;;;;;;;;;;;;14.24;54.97;99663.38;5017157;28;19940;-83
2023/03/23 03:17:52;;;;;;;;;;;;;;;14.26;54.70;99663.19;5035702;28;19917;-84
2023/03/23 03:20:18;;;;;;;;;;;;;;;14.24;55.20;99658.88;5035322;28;20000;-84
2023/03/23 03:22:45;;;;;;;;;;;;;;;14.20;55.15;99657.63;5034801;28;20382;-83
2023/03/23 03:25:23;;;;;;;;;;;;;;;14.23;55.39;99659.09;5017204;28;19917;-83
2023/03/23 03:27:52;;;;;;;;;;;;;;;14.18;55.59;99661.50;5013028;28;20377;-83
2023/03/23 03:30:20;;;;;;;;;;;;;;;14.17;55.31;99662.53;5009332;28;19924;-83
2023/03/23 03:32:48;;;;;;;;;;;;;;;14.19;55.55;99665.81;5028574;28;19924;-83
2023/03/23 03:35:14;;;;;;;;;;;;;;;14.11;55.83;99664.16;5016397;28;20286;-83
2023/03/23 03:37:39;;;;;;;;;;;;;;;14.09;55.92;99663.53;5010690;28;19916;-83
2023/03/23 03:40:11;;;;;;;;;;;;;;;14.10;56.28;99665.16;5016107;28;19927;-83
2023/03/23 03:42:41;;;;;;;;;;;;;;;14.07;56.19;99662.06;5034585;28;19917;-83
2023/03/23 03:45:07;;;;;;;;;;;;;;;14.07;55.83;99667.38;5018672;28;19917;-83
2023/03/23 03:47:33;;;;;;;;;;;;;;;14.05;56.51;99664.91;5025569;28;19949;-83
2023/03/23 03:49:58;;;;;;;;;;;;;;;14.02;56.67;99665.31;5018530;28;19940;-83
2023/03/23 03:52:23;;;;;;;;;;;;;;;13.99;56.38;99665.69;5022216;28;19917;-84
2023/03/23 03:54:49;;;;;;;;;;;;;;;14.00;56.97;99664.69;5034221;28;20911;-83
2023/03/23 03:57:14;;;;;;;;;;;;;;;13.98;56.52;99669.38;5017816;28;20481;-83
2023/03/23 03:59:40;;;;;;;;;;;;;;;13.94;56.73;99658.31;5015614;28;19917;-84
2023/03/23 04:02:05;;;;;;;;;;;;;;;13.92;57.19;99663.00;5031950;28;19940;-83
2023/03/23 04:04:31;;;;;;;;;;;;;;;13.94;56.87;99654.81;5009241;28;20156;-83
2023/03/23 04:06:57;;;;;;;;;;;;;;;13.92;57.30;99659.50;5015566;28;19943;-83
2023/03/23 04:09:22;;;;;;;;;;;;;;;13.92;57.25;99670.97;5015661;28;19971;-83
2023/03/23 04:11:48;;;;;;;;;;;;;;;13.91;57.33;99668.50;5025650;28;19917;-84
2023/03/23 04:14:13;;;;;;;;;;;;;;;13.90;57.50;99666.88;5016292;28;19924;-84
2023/03/23 04:16:38;;;;;;;;;;;;;;;13.90;57.62;99667.69;5015029;28;20241;-83
2023/03/23 04:19:03;;;;;;;;;;;;;;;13.86;57.98;99669.09;5014194;28;19951;-83
2023/03/23 04:21:29;;;;;;;;;;;;;;;13.84;58.07;99668.47;5034309;28;19967;-83
2023/03/23 04:23:58;;;;;;;;;;;;;;;13.81;58.30;99666.19;5015527;28;19917;-83
2023/03/23 04:26:25;;;;;;;;;;;;;;;13.77;58.69;99676.38;5014667;28;19921;-83
2023/03/23 04:28:50;;;;;;;;;;;;;;;13.69;58.90;99676.53;5017012;28;19917;-83
2023/03/23 04:31:16;;;;;;;;;;;;;;;13.55;59.84;99675.59;5017935;28;19956;-83
2023/03/23 04:33:41;;;;;;;;;;;;;;;13.44;61.20;99678.78;5013025;28;20443;-83
2023/03/23 04:36:06;;;;;;;;;;;;;;;13.31;61.43;99682.13;5015453;28;20389;-83
2023/03/23 04:38:32;;;;;;;;;;;;;;;13.25;61.96;99688.19;5016790;28;19924;-83
2023/03/23 04:41:00;;;;;;;;;;;;;;;13.25;62.39;99685.53;5017888;28;19925;-83
2023/03/23 04:43:28;;;;;;;;;;;;;;;13.19;62.50;99696.91;5014950;28;19917;-83
2023/03/23 04:45:57;;;;;;;;;;;;;;;13.00;63.63;99693.03;5033874;28;19917;-83
2023/03/23 04:48:33;;;;;;;;;;;;;;;12.90;64.02;99700.47;5021373;28;19930;-83
2023/03/23 04:51:00;;;;;;;;;;;;;;;12.86;64.77;99700.03;5012104;28;19917;-83
2023/03/23 04:53:25;;;;;;;;;;;;;;;12.72;66.47;99698.22;5017025;28;19921;-83
2023/03/23 04:55:51;;;;;;;;;;;;;;;12.62;66.66;99697.69;5018080;28;19924;-83
2023/03/23 04:58:16;;;;;;;;;;;;;;;12.51;67.83;99697.19;5034523;28;19927;-83
2023/03/23 05:00:43;;;;;;;;;;;;;;;12.43;69.87;99710.50;5015066;28;19924;-83
2023/03/23 05:03:09;;;;;;;;;;;;;;;12.33;68.85;99712.63;5036206;28;20015;-83
2023/03/23 05:05:37;;;;;;;;;;;;;;;12.28;69.46;99710.53;5018077;28;19916;-84
2023/03/23 05:08:02;;;;;;;;;;;;;;;12.24;70.69;99719.03;5014120;28;19928;-83
2023/03/23 05:10:28;;;;;;;;;;;;;;;12.16;70.79;99717.28;5018073;28;19925;-83
2023/03/23 05:12:54;;;;;;;;;;;;;;;12.14;71.24;99724.59;5024579;28;20204;-83
2023/03/23 05:15:19;;;;;;;;;;;;;;;12.14;71.70;99710.53;5036213;28;20019;-84
2023/03/23 05:17:45;;;;;;;;;;;;;;;12.15;71.53;99717.47;5019944;28;19951;-83
2023/03/23 05:20:11;;;;;;;;;;;;;;;12.10;71.96;99723.31;5036268;28;19925;-84
2023/03/23 05:22:38;;;;;;;;;;;;;;;12.06;72.29;99725.50;5015960;28;20303;-83
2023/03/23 05:25:04;;;;;;;;;;;;;;;12.09;73.23;99725.13;5011308;28;19917;-84
2023/03/23 05:27:30;;;;;;;;;;;;;;;12.10;72.58;99729.41;5007623;28;19917;-83
2023/03/23 05:30:00;;;;;;;;;;;;;;;12.15;72.21;99730.72;5016290;28;19917;-84
2023/03/23 05:32:29;;;;;;;;;;;;;;;12.25;72.19;99737.41;5016127;28;19928;-83
2023/03/23 05:35:00;;;;;;;;;;;;;;;12.38;71.56;99726.16;5013780;28;19917;-83
2023/03/23 05:37:28;;;;;;;;;;;;;;;12.52;70.55;99727.16;5014873;28;19996;-83
2023/03/23 05:39:55;;;;;;;;;;;;;;;12.63;70.25;99725.84;5014729;28;20020;-83
2023/03/23 05:42:23;;;;;;;;;;;;;;;12.70;69.92;99732.91;5009283;28;20382;-83
2023/03/23 05:44:49;;;;;;;;;;;;;;;12.80;69.72;99727.31;5015045;28;19947;-83
2023/03/23 05:47:15;;;;;;;;;;;;;;;12.87;69.31;99730.88;5035940;28;19920;-83
2023/03/23 05:49:41;;;;;;;;;;;;;;;12.93;69.29;99734.59;5015772;28;19925;-83
2023/03/23 05:52:07;;;;;;;;;;;;;;;12.96;69.08;99750.94;5017009;28;19935;-83
2023/03/23 05:54:34;;;;;;;;;;;;;;;13.00;68.40;99737.34;5019234;28;20324;-84
2023/03/23 05:56:59;;;;;;;;;;;;;;;13.01;68.58;99739.78;5028502;28;19918;-84
2023/03/23 05:59:24;;;;;;;;;;;;;;;13.04;68.63;99755.34;5010109;28;19917;-83
2023/03/23 06:01:51;;;;;;;;;;;;;;;13.07;68.33;99752.31;5035637;28;19928;-83
2023/03/23 06:04:16;;;;;;;;;;;;;;;13.11;68.32;99753.59;5039155;28;19952;-83
2023/03/23 06:06:43;;;;;;;;;;;;;;;13.12;67.81;99752.56;5022455;28;20003;-83
2023/03/23 06:09:09;;;;;;;;;;;;;;;13.11;68.85;99758.09;5014157;28;19944;-83
2023/03/23 06:11:34;;;;;;;;;;;;;;;13.08;68.74;99756.59;5034402;28;19918;-84
2023/03/23 06:14:00;;;;;;;;;;;;;;;13.07;68.17;99762.94;5017896;28;19924;-84
2023/03/23 06:16:26;;;;;;;;;;;;;;;13.07;68.61;99756.81;5011580;28;20008;-84
2023/03/23 06:18:51;;;;;;;;;;;;;;;13.04;71.27;99765.97;5014966;28;19917;-84
2023/03/23 06:21:21;;;;;;;;;;;;;;;13.04;68.93;99762.47;5016674;28;20350;-84
2023/03/23 06:23:47;;;;;;;;;;;;;;;13.02;68.92;99754.72;5033777;28;19921;-84
2023/03/23 06:26:16;;;;;;;;;;;;;;;13.03;69.22;99763.50;5017603;28;19921;-84
2023/03/23 06:28:41;;;;;;;;;;;;;;;13.07;69.09;99767.44;5018586;28;19975;-84
2023/03/23 06:31:07;;;;;;;;;;;;;;;13.11;68.58;99766.06;5019275;28;19916;-84
2023/03/23 06:33:36;;;;;;;;;;;;;;;13.13;68.54;99766.66;5033089;28;19917;-84
2023/03/23 06:36:01;;;;;;;;;;;;;;;13.17;68.19;99760.78;5012708;28;20295;-85
2023/03/23 06:38:27;;;;;;;;;;;;;;;13.18;68.42;99773.06;5014880;28;19921;-84
2023/03/23 06:40:52;;;;;;;;;;;;;;;13.23;67.85;99761.06;5023219;28;19968;-84
2023/03/23 06:43:18;;;;;;;;;;;;;;;13.26;68.22;99764.16;5030052;28;19917;-84
2023/03/23 06:45:43;;;;;;;;;;;;;;;13.29;68.25;99765.66;5041393;28;19923;-84
2023/03/23 06:48:08;;;;;;;;;;;;;;;13.32;67.76;99759.97;5023947;28;20154;-84
2023/03/23 06:50:34;;;;;;;;;;;;;;;13.36;67.70;99772.66;5019011;28;20103;-84
2023/03/23 06:52:59;;;;;;;;;;;;;;;13.35;68.11;99765.72;5018750;28;19920;-84
2023/03/23 06:55:25;;;;;;;;;;;;;;;13.37;67.46;99776.13;5017261;28;19917;-84
2023/03/23 06:57:50;;;;;;;;;;;;;;;13.36;69.29;99783.28;5018712;28;19960;-84
2023/03/23 07:00:16;;;;;;;;;;;;;;;13.41;68.22;99782.72;5011087;28;20314;-84
2023/03/23 07:02:43;;;;;;;;;;;;;;;13.47;67.70;99770.53;5012448;28;20306;-84
2023/03/23 07:05:09;;;;;;;;;;;;;;;13.49;67.99;99789.75;5018172;28;19948;-84
2023/03/23 07:07:38;;;;;;;;;;;;;;;13.47;68.53;99791.78;5015257;28;19928;-84
2023/03/23 07:10:11;;;;;;;;;;;;;;;13.49;68.71;99805.69;5031620;28;19917;-84
2023/03/23 07:12:36;;;;;;;;;;;;;;;13.43;69.46;99814.41;5017583;28;19985;-84
2023/03/23 07:15:02;;;;;;;;;;;;;;;13.25;69.22;99820.09;5011793;28;19961;-84
2023/03/23 07:17:28;;;;;;;;;;;;;;;13.04;70.21;99815.56;5017185;28;19917;-84
2023/03/23 07:19:56;;;;;;;;;;;;;;;12.88;72.81;99827.22;5016317;28;19970;-84
2023/03/23 07:22:21;;;;;;;;;;;;;;;12.77;71.39;99828.47;5015464;28;19944;-83
2023/03/23 07:24:47;;;;;;;;;;;;;;;12.74;72.74;99842.13;5020247;28;20555;-83
2023/03/23 07:27:13;;;;;;;;;;;;;;;12.77;72.41;99836.44;5036299;28;19920;-84
2023/03/23 07:29:41;;;;;;;;;;;;;;;12.90;71.08;99815.41;5012578;28;19933;-83
2023/03/23 07:32:13;;;;;;;;;;;;;;;13.02;71.25;99818.41;5015316;28;19924;-84
2023/03/23 07:34:38;;;;;;;;;;;;;;;13.11;70.22;99825.25;5033963;28;19917;-84
2023/03/23 07:37:04;;;;;;;;;;;;;;;13.14;70.11;99829.38;5033406;28;20240;-84
2023/03/23 07:39:30;;;;;;;;;;;;;;;13.24;69.93;99831.75;5003204;28;19920;-84
2023/03/23 07:41:56;;;;;;;;;;;;;;;13.33;69.75;99836.78;5005634;28;19928;-84
2023/03/23 07:44:22;;;;;;;;;;;;;;;13.43;69.25;99838.31;5029832;28;19917;-84
2023/03/23 07:46:48;;;;;;;;;;;;;;;13.54;68.89;99837.84;5014325;28;19924;-84
2023/03/23 07:49:13;;;;;;;;;;;;;;;13.66;68.58;99852.28;5008500;28;19940;-84
2023/03/23 07:51:39;;;;;;;;;;;;;;;13.69;68.72;99849.22;5027759;28;20433;-84
2023/03/23 07:54:07;;;;;;;;;;;;;;;13.74;68.36;99857.44;5018063;28;19917;-84
2023/03/23 07:56:32;;;;;;;;;;;;;;;13.78;67.95;99869.34;5012355;28;19921;-84
2023/03/23 07:58:58;;;;;;;;;;;;;;;13.76;68.12;99879.34;5016588;28;19917;-84
2023/03/23 08:01:26;;;;;;;;;;;;;;;13.89;67.99;99881.31;5013536;28;19997;-85
2023/03/23 08:03:54;;;;;;;;;;;;;;;13.82;68.47;99877.75;5032111;28;19917;-84
2023/03/23 08:06:21;;;;;;;;;;;;;;;13.78;68.93;99879.16;5037628;28;19955;-85
2023/03/23 08:08:46;;;;;;;;;;;;;;;13.76;69.12;99876.69;5007298;28;19925;-85
2023/03/23 08:11:13;;;;;;;;;;;;;;;13.85;68.89;99876.56;5013293;28;19924;-85
2023/03/23 08:13:39;;;;;;;;;;;;;;;13.87;69.67;99879.84;5017009;28;19913;-84
2023/03/23 08:16:04;;;;;;;;;;;;;;;13.92;69.26;99888.94;5017638;28;19923;-83
2023/03/23 08:18:30;;;;;;;;;;;;;;;13.97;68.76;99889.19;5008979;28;20555;-83
2023/03/23 08:20:55;;;;;;;;;;;;;;;13.94;68.14;99891.38;5025542;28;20306;-83
2023/03/23 08:23:21;;;;;;;;;;;;;;;13.97;68.18;99877.72;5007961;28;20079;-84
2023/03/23 08:25:47;;;;;;;;;;;;;;;13.92;68.53;99880.94;5015583;28;19967;-84
2023/03/23 08:28:13;;;;;;;;;;;;;;;13.90;68.41;99884.81;5028070;28;19925;-84
2023/03/23 08:30:39;;;;;;;;;;;;;;;13.91;68.05;99884.59;5008825;28;20386;-84
2023/03/23 08:33:05;;;;;;;;;;;;;;;13.91;68.41;99889.91;5016731;28;19963;-84
2023/03/23 08:35:31;;;;;;;;;;;;;;;13.90;69.28;99896.25;5016970;28;19971;-84
2023/03/23 08:37:57;;;;;;;;;;;;;;;13.94;68.62;99894.88;5014534;28;19917;-84
2023/03/23 08:40:23;;;;;;;;;;;;;;;13.97;68.44;99905.13;5027441;28;19929;-84
2023/03/23 08:42:49;;;;;;;;;;;;;;;13.97;67.79;99906.97;5026463;28;19928;-84
2023/03/23 08:45:16;;;;;;;;;;;;;;;13.99;68.17;99899.59;5009470;28;19928;-84
2023/03/23 08:47:42;;;;;;;;;;;;;;;13.97;68.04;99909.63;5032424;28;19917;-84
2023/03/23 08:50:10;;;;;;;;;;;;;;;13.96;68.50;99907.97;5001848;28;19917;-85
2023/03/23 08:52:37;;;;;;;;;;;;;;;13.94;68.63;99915.28;5010877;28;19931;-84
2023/03/23 08:55:05;;;;;;;;;;;;;;;13.94;69.00;99909.97;5009540;28;20501;-84
2023/03/23 08:57:30;;;;;;;;;;;;;;;13.87;68.87;99915.25;5014908;28;19917;-85
2023/03/23 09:00:00;;;;;;;;;;;;;;;13.73;70.04;99916.94;5017327;28;20013;-85
2023/03/23 09:02:27;;;;;;;;;;;;;;;13.56;70.95;99918.13;5011362;28;20310;-84
2023/03/23 09:04:54;;;;;;;;;;;;;;;13.37;73.06;99909.75;5026702;28;19917;-85
2023/03/23 09:07:20;;;;;;;;;;;;;;;13.17;74.79;99911.28;5015331;28;20008;-84
2023/03/23 09:09:45;;;;;;;;;;;;;;;13.16;73.85;99922.94;5015630;28;19952;-83
2023/03/23 09:12:11;;;;;;;;;;;;;;;13.00;75.58;99926.56;5034077;28;20744;-84
2023/03/23 09:14:37;;;;;;;;;;;;;;;12.95;76.00;99928.97;5032229;28;19939;-84
2023/03/23 09:17:03;;;;;;;;;;;;;;;12.96;74.97;99930.59;5016509;28;19928;-83
2023/03/23 09:19:29;;;;;;;;;;;;;;;13.05;75.91;99928.69;5032653;28;19921;-84
2023/03/23 09:21:54;;;;;;;;;;;;;;;13.11;75.18;99930.63;5018963;28;20638;-83
2023/03/23 09:24:20;;;;;;;;;;;;;;;13.07;75.86;99943.41;5016372;28;19916;-83
2023/03/23 09:26:45;;;;;;;;;;;;;;;13.13;75.77;99939.19;5016531;28;19917;-83
2023/03/23 09:29:12;;;;;;;;;;;;;;;13.29;75.21;99952.34;5012107;28;19921;-83
2023/03/23 09:31:39;;;;;;;;;;;;;;;13.52;74.69;99946.91;5016308;28;19970;-83
2023/03/23 09:34:05;;;;;;;;;;;;;;;13.78;73.25;99945.59;5009264;28;19921;-83
2023/03/23 09:36:31;;;;;;;;;;;;;;;13.96;72.27;99945.16;5010051;28;19924;-83
2023/03/23 09:38:56;;;;;;;;;;;;;;;14.09;70.72;99950.63;5016851;28;19925;-83
2023/03/23 09:41:43;;;;;;;;;;;;;;;14.15;71.42;99952.53;5025946;28;19932;-83
2023/03/23 09:44:21;;;;;;;;;;;;;;;14.24;70.27;99947.91;5017887;28;19932;-84
2023/03/23 09:47:19;;;;;;;;;;;;;;;14.42;69.80;99956.28;5024171;28;19921;-83
2023/03/23 09:49:54;;;;;;;;;;;;;;;14.56;67.33;99953.75;4989531;28;19986;-84
2023/03/23 09:52:20;;;;;;;;;;;;;;;14.73;67.34;99955.16;5011151;28;20019;-84
2023/03/23 09:54:46;;;;;;;;;;;;;;;14.72;66.32;99966.78;5002068;28;20026;-84
2023/03/23 09:57:20;;;;;;;;;;;;;;;14.54;65.47;99953.97;5025656;28;19989;-84
2023/03/23 10:00:07;;;;;;;;;;;;;;;14.45;65.42;99957.75;5007686;28;20382;-85
2023/03/23 10:02:36;;;;;;;;;;;;;;;14.28;66.43;99959.00;5012387;28;20349;-85
2023/03/23 10:05:23;;;;;;;;;;;;;;;14.39;67.22;99956.66;4993006;28;19917;-85
2023/03/23 10:07:49;;;;;;;;;;;;;;;14.62;66.53;99951.16;5006414;28;20364;-84
2023/03/23 10:10:14;;;;;;;;;;;;;;;14.81;66.94;99944.34;5006572;28;19918;-85
2023/03/23 10:12:48;;;;;;;;;;;;;;;15.07;65.91;99943.69;5010993;28;19921;-84
2023/03/23 10:15:14;;;;;;;;;;;;;;;15.21;65.21;99941.94;5030871;28;19917;-84
2023/03/23 10:17:39;;;;;;;;;;;;;;;15.24;65.14;99948.72;5015401;28;19916;-84
2023/03/23 10:20:07;;;;;;;;;;;;;;;15.33;65.40;99942.22;5011372;28;19921;-84
2023/03/23 10:22:36;;;;;;;;;;;;;;;15.35;65.58;99926.84;5015430;28;20263;-83
2023/03/23 10:25:14;;;;;;;;;;;;;;;15.49;65.34;99928.56;5032906;28;20270;-83
2023/03/23 10:27:46;;;;;;;;;;;;;;;15.57;64.74;99924.09;5029776;28;20390;-83
2023/03/23 10:30:15;;;;;;;;;;;;;;;15.56;64.60;99922.41;5026001;28;19917;-83
2023/03/23 10:32:40;;;;;;;;;;;;;;;15.61;64.80;99926.16;5034609;28;19925;-84
2023/03/23 10:35:09;;;;;;;;;;;;;;;15.60;63.88;99921.00;5017883;28;19944;-84
2023/03/23 10:37:37;;;;;;;;;;;;;;;15.63;63.53;99917.94;5015446;28;19917;-84
2023/03/23 10:40:09;;;;;;;;;;;;;;;15.65;64.10;99910.56;5006999;28;19921;-84
2023/03/23 10:42:35;;;;;;;;;;;;;;;15.96;63.46;99920.72;5012965;28;19925;-84
2023/03/23 10:45:12;;;;;;;;;;;;;;;16.09;62.23;99923.44;5004142;28;19918;-84
2023/03/23 10:47:39;;;;;;;;;;;;;;;16.30;61.48;99919.78;5036989;28;20329;-84
2023/03/23 10:50:06;;;;;;;;;;;;;;;16.49;61.16;99918.16;5035125;28;19916;-82
2023/03/23 10:52:35;;;;;;;;;;;;;;;16.61;61.81;99925.50;5017969;28;20015;-83
2023/03/23 10:55:09;;;;;;;;;;;;;;;16.67;61.23;99927.38;5019864;28;19921;-83
2023/03/23 10:57:36;;;;;;;;;;;;;;;16.84;59.94;99938.47;5021539;28;19917;-83
2023/03/23 11:00:06;;;;;;;;;;;;;;;16.94;60.03;99939.69;5036443;28;19988;-83
2023/03/23 11:02:35;;;;;;;;;;;;;;;17.09;59.11;99931.47;5020459;28;20337;-83
2023/03/23 11:05:04;;;;;;;;;;;;;;;17.04;58.73;99941.94;5029748;28;20359;-83
2023/03/23 11:07:32;;;;;;;;;;;;;;;16.97;57.86;99941.97;5016940;28;19920;-84
2023/03/23 11:10:06;;;;;;;;;;;;;;;16.83;58.09;99939.47;5018653;28;19947;-83
2023/03/23 11:12:33;;;;;;;;;;;;;;;16.89;58.31;99936.81;5003414;28;19913;-84
2023/03/23 11:15:18;;;;;;;;;;;;;;;16.73;58.95;99938.06;5012779;28;20015;-84
2023/03/23 11:17:55;;;;;;;;;;;;;;;16.67;59.72;99938.88;5010494;28;19927;-83
2023/03/23 11:20:21;;;;;;;;;;;;;;;16.88;59.57;99934.38;5010756;28;19931;-83
2023/03/23 11:22:47;;;;;;;;;;;;;;;16.75;59.50;99946.66;5037546;28;20004;-83
2023/03/23 11:25:13;;;;;;;;;;;;;;;16.53;60.61;99939.91;5029285;28;19921;-84
2023/03/23 11:27:39;;;;;;;;;;;;;;;16.40;60.82;99947.88;5013210;28;19959;-84
2023/03/23 11:30:11;;;;;;;;;;;;;;;16.16;60.99;99950.13;5019056;28;20147;-84
2023/03/23 11:32:37;;;;;;;;;;;;;;;16.11;61.99;99948.06;5030946;28;19923;-84
2023/03/23 11:35:08;;;;;;;;;;;;;;;16.02;61.94;99948.47;5019870;28;19988;-83
2023/03/23 11:37:47;;;;;;;;;;;;;;;15.85;63.29;99947.97;5013559;28;19964;-84
2023/03/23 11:40:12;;;;;;;;;;;;;;;15.71;63.85;99947.13;5015621;28;19953;-84
2023/03/23 11:42:42;;;;;;;;;;;;;;;15.69;63.60;99938.47;5008668;28;19924;-84
2023/03/23 11:45:30;;;;;;;;;;;;;;;15.60;64.59;99947.66;5040079;28;19921;-84
2023/03/23 11:48:03;;;;;;;;;;;;;;;15.46;65.06;99941.44;5009598;28;19971;-84
2023/03/23 11:50:34;;;;;;;;;;;;;;;15.32;65.41;99935.22;5030775;28;19956;-84
2023/03/23 11:53:01;;;;;;;;;;;;;;;;;;5016365;28;19917;-84
2023/03/23 11:55:26;;;;;;;;;;;;;;;;;;5010119;28;19921;-84
2023/03/23 11:57:54;;;;;;;;;;;;;;;;;;5038444;28;20210;-84
2023/03/23 12:00:19;;;;;;;;;;;;;;;;;;5017785;28;19925;-84
2023/03/23 12:02:45;;;;;;;;;;;;;;;;;;5025938;28;19946;-84
2023/03/23 12:05:10;;;;;;;;;;;;;;;;;;5037598;28;19956;-85
2023/03/23 12:07:36;;;;;;;;;;;;;;;;;;5035503;28;19920;-85
2023/03/23 12:10:02;;;;;;;;;;;;;;;;;;5017642;28;19924;-85
2023/03/23 12:12:28;;;;;;;;;;;;;;;;;;5015007;28;20294;-84
2023/03/23 12:14:53;;;;;;;;;;;;;;;;;;5017310;28;19913;-84
2023/03/23 12:17:18;;;;;;;;;;;;;;;;;;5013158;28;20388;-85
2023/03/23 12:19:45;;;;;;;;;;;;;;;;;;5015251;28;20350;-84
2023/03/23 12:22:11;;;;;;;;;;;;;;;;;;5011943;28;19913;-84
2023/03/23 12:24:36;;;;;;;;;;;;;;;;;;5006078;28;19943;-84
2023/03/23 12:27:01;;;;;;;;;;;;;;;;;;5033187;28;19921;-83
2023/03/23 12:29:26;;;;;;;;;;;;;;;;;;5013867;28;20391;-84
2023/03/23 12:31:51;;;;;;;;;;;;;;;;;;5017013;28;19943;-84
2023/03/23 12:34:17;;;;;;;;;;;;;;;;;;5031227;28;19967;-85
2023/03/23 12:36:42;;;;;;;;;;;;;;;;;;5036378;28;19908;-84
2023/03/23 12:39:07;;;;;;;;;;;;;;;;;;5040304;28;19976;-84
2023/03/23 12:41:33;;;;;;;;;;;;;;;;;;5016876;28;19925;-84
2023/03/23 12:43:58;;;;;;;;;;;;;;;;;;5008559;28;19991;-85
2023/03/23 12:46:24;;;;;;;;;;;;;;;;;;5015868;28;19991;-84
2023/03/23 12:48:50;;;;;;;;;;;;;;;;;;5028294;28;19924;-84
2023/03/23 12:51:15;;;;;;;;;;;;;;;;;;5015832;28;19947;-84
2023/03/23 12:53:40;;;;;;;;;;;;;;;;;;5017506;28;19924;-84
2023/03/23 12:56:06;;;;;;;;;;;;;;;;;;5017939;28;19924;-84
2023/03/23 12:58:31;;;;;;;;;;;;;;;;;;5037716;28;19937;-84
2023/03/23 13:00:57;;;;;;;;;;;;;;;;;;5018416;28;19923;-84
2023/03/23 13:03:22;;;;;;;;;;;;;;;;;;5036689;28;20299;-84
2023/03/23 13:05:54;;;;;;;;;;;;;;;;;;5035939;28;19940;-84
2023/03/23 13:08:20;;;;;;;;;;;;;;;;;;5001507;28;19932;-83